Tourville, Canada
Current Conditions -  °F | °C
As of 6:00 PM on Wednesday 26 Nov 2014 (Local Time) from CYQB Reporting Station
Overcast Overcast  
Wind Chill: 23°   Ceiling: 11000
Heat Index: 30°   Visibility: 15mi
Dew Point: 19°   Wind: 7mph
Humidity: 64%   Direction: 50°NE
Pressure: 30.17"   Gusts: NA
Location:  47.1°N, 69.98°W
Report Text: CYQB 262300Z 05006KT 15SM OVC110 M01/M07 A3017 RMK AS8 VIRGA PRESFR SLP219
Loading
Personal Weather Stations






























Interactive Weather Map New forecast layout! Learn more

10-Day Weather Forecast

Advertisements
Track Severe Weather on mobile